createdAt,value
2018-04-06T02:18:11.460Z,22.70
2018-04-06T02:20:39.682Z,19.23
2018-04-06T02:23:07.129Z,13.57
2018-04-06T02:25:34.618Z,14.07
2018-04-06T02:28:02.070Z,21.40
2018-04-06T02:30:29.534Z,22.33
2018-04-06T02:32:56.993Z,23.43
2018-04-06T02:35:24.449Z,27.43
2018-04-06T02:37:51.901Z,24.90
2018-04-06T02:40:20.353Z,14.13
2018-04-06T02:42:48.087Z,17.93
2018-04-06T02:45:16.302Z,15.97
2018-04-06T02:47:43.764Z,24.73
2018-04-06T02:50:11.216Z,23.57
2018-04-06T02:52:38.677Z,25.53
2018-04-06T02:55:06.129Z,18.63
2018-04-06T02:57:33.596Z,25.47
2018-04-06T03:00:01.825Z,19.23
2018-04-06T03:02:29.713Z,14.20
2018-04-06T03:04:57.186Z,19.93
2018-04-06T03:07:24.866Z,19.70
2018-04-06T03:09:52.310Z,18.77
2018-04-06T03:12:19.769Z,22.33
2018-04-06T03:14:47.221Z,16.47
2018-04-06T03:17:14.677Z,19.80
2018-04-06T03:19:42.719Z,14.17
2018-04-06T03:22:10.178Z,24.47
2018-04-06T03:24:37.634Z,16.53
2018-04-06T03:27:05.089Z,11.20
2018-04-06T03:29:32.559Z,17.97
2018-04-06T03:32:00.010Z,13.00
2018-04-06T03:34:30.044Z,10.97
2018-04-06T03:37:00.063Z,15.83
2018-04-06T03:39:27.925Z,18.00
2018-04-06T03:41:57.815Z,14.27
2018-04-06T03:44:25.273Z,15.90
2018-04-06T03:46:53.458Z,16.53
2018-04-06T03:49:21.641Z,21.67
2018-04-06T03:51:49.093Z,15.47
2018-04-06T03:54:17.312Z,17.43
2018-04-06T03:56:45.600Z,16.60
2018-04-06T03:59:13.817Z,19.57
2018-04-06T04:01:41.268Z,18.97
2018-04-06T04:04:08.816Z,12.37
2018-04-06T04:06:36.261Z,14.27
2018-04-06T04:09:03.715Z,17.87
2018-04-06T04:11:31.171Z,16.27
2018-04-06T04:13:59.525Z,15.63
2018-04-06T04:16:27.749Z,15.67
2018-04-06T04:18:55.206Z,11.73
2018-04-06T04:21:22.673Z,14.33
2018-04-06T04:23:51.358Z,14.00
2018-04-06T04:26:18.810Z,11.90
2018-04-06T04:28:46.254Z,16.13
2018-04-06T04:31:13.719Z,17.93
2018-04-06T04:33:41.166Z,15.23
2018-04-06T04:36:09.334Z,14.67
2018-04-06T04:38:36.787Z,10.87
2018-04-06T04:41:04.261Z,17.80
2018-04-06T04:43:31.708Z,12.20
2018-04-06T04:45:59.161Z,17.00
2018-04-06T04:48:26.620Z,17.60
2018-04-06T04:50:54.067Z,14.40
2018-04-06T04:53:21.529Z,25.40
2018-04-06T04:55:49.005Z,29.73
2018-04-06T04:58:16.468Z,38.93
2018-04-06T05:00:43.971Z,17.53
2018-04-06T05:03:12.190Z,27.27
2018-04-06T05:05:39.643Z,21.90
2018-04-06T05:08:07.509Z,21.87
2018-04-06T05:10:34.967Z,29.87
2018-04-06T05:13:02.435Z,24.30
2018-04-06T05:15:29.897Z,20.13
2018-04-06T05:17:57.348Z,17.90
2018-04-06T05:20:25.522Z,21.00
2018-04-06T05:22:52.974Z,19.30
2018-04-06T05:25:21.059Z,18.57
2018-04-06T05:27:48.521Z,22.50
2018-04-06T05:30:15.987Z,15.97
2018-04-06T05:32:43.658Z,18.70
2018-04-06T05:35:11.215Z,21.87
2018-04-06T05:37:39.102Z,21.07
2018-04-06T05:40:08.326Z,18.70
2018-04-06T05:42:35.785Z,18.40
2018-04-06T05:45:03.257Z,28.27
2018-04-06T05:47:30.713Z,21.97
2018-04-06T05:49:58.216Z,19.73
2018-04-06T05:52:26.434Z,17.43
2018-04-06T05:54:53.885Z,20.03
2018-04-06T05:57:21.341Z,20.20
2018-04-06T05:59:48.802Z,24.83
2018-04-06T06:02:16.346Z,24.73
2018-04-06T06:04:43.793Z,18.33
2018-04-06T06:07:11.250Z,20.60
2018-04-06T06:09:39.161Z,15.57
2018-04-06T06:12:06.617Z,17.17
2018-04-06T06:14:34.137Z,9.37
2018-04-06T06:17:01.601Z,16.97
2018-04-06T06:19:29.042Z,13.90
2018-04-06T06:21:56.490Z,11.10
2018-04-06T06:24:24.723Z,9.60
2018-04-06T06:26:52.741Z,8.40
2018-04-06T06:29:20.714Z,10.67
2018-04-06T06:31:48.175Z,6.77
2018-04-06T06:34:15.638Z,10.80
2018-04-06T06:36:43.084Z,6.33
2018-04-06T06:39:10.571Z,7.07
2018-04-06T06:41:38.019Z,5.97
2018-04-06T06:44:05.470Z,8.50
2018-04-06T06:46:33.373Z,8.60
2018-04-06T06:49:00.828Z,8.20
2018-04-06T06:51:28.326Z,6.60
2018-04-06T06:53:56.533Z,5.03
2018-04-06T06:56:23.983Z,7.77
2018-04-06T06:58:51.461Z,8.63
2018-04-06T07:01:18.916Z,7.00
2018-04-06T07:03:46.419Z,6.23
2018-04-06T07:06:15.297Z,7.50
2018-04-06T07:08:42.745Z,5.63
2018-04-06T07:11:10.185Z,8.57
2018-04-06T07:13:37.639Z,6.60
2018-04-06T07:16:05.822Z,7.03
2018-04-06T07:18:33.706Z,9.40
2018-04-06T07:21:01.154Z,7.13
2018-04-06T07:23:29.918Z,7.00
2018-04-06T07:25:57.370Z,8.27
2018-04-06T07:28:25.377Z,5.00
2018-04-06T07:30:53.601Z,9.60
2018-04-06T07:33:21.050Z,6.40
2018-04-06T07:35:48.573Z,5.33
2018-04-06T07:38:17.071Z,8.23
2018-04-06T07:40:45.870Z,6.67
2018-04-06T07:43:13.314Z,6.80
2018-04-06T07:45:41.173Z,7.23
2018-04-06T07:48:09.381Z,8.13
2018-04-06T07:50:37.098Z,7.77
2018-04-06T07:53:04.534Z,7.37
2018-04-06T07:55:32.543Z,6.93
2018-04-06T07:58:00.749Z,9.10
2018-04-06T08:00:28.379Z,7.33
2018-04-06T08:02:55.921Z,6.10
2018-04-06T08:05:24.701Z,6.13
2018-04-06T08:07:52.928Z,6.67
2018-04-06T08:10:21.752Z,6.83
2018-04-06T08:12:49.349Z,5.80
2018-04-06T08:15:16.800Z,4.90
2018-04-06T08:17:44.275Z,5.57
2018-04-06T08:20:11.734Z,5.43
2018-04-06T08:22:39.292Z,4.70
2018-04-06T08:25:06.729Z,7.70
2018-04-06T08:27:34.632Z,6.50
2018-04-06T08:30:02.075Z,5.97
2018-04-06T08:32:30.141Z,8.40
2018-04-06T08:34:58.072Z,4.03
2018-04-06T08:37:25.477Z,4.80
2018-04-06T08:39:52.932Z,7.80
2018-04-06T08:42:20.390Z,6.30
2018-04-06T08:44:48.257Z,3.77
2018-04-06T08:47:15.701Z,7.50
2018-04-06T08:49:43.160Z,8.50
2018-04-06T08:52:10.608Z,5.97
2018-04-06T08:54:38.093Z,8.03
2018-04-06T08:57:05.539Z,8.00
2018-04-06T08:59:33.873Z,5.33
2018-04-06T09:02:02.102Z,3.93
2018-04-06T09:04:30.618Z,3.17
2018-04-06T09:06:58.067Z,3.37
2018-04-06T09:09:25.539Z,5.53
2018-04-06T09:11:53.748Z,6.70
2018-04-06T09:14:21.199Z,5.43
2018-04-06T09:16:48.660Z,5.43
2018-04-06T09:19:16.161Z,5.00
2018-04-06T09:21:43.730Z,4.80
2018-04-06T09:24:11.610Z,4.83
2018-04-06T09:26:39.838Z,5.10
2018-04-06T09:29:08.197Z,5.37
2018-04-06T09:31:35.885Z,5.53
2018-04-06T09:34:03.345Z,3.10
2018-04-06T09:36:30.790Z,4.30
2018-04-06T09:39:00.160Z,4.47
2018-04-06T09:41:27.738Z,5.40
2018-04-06T09:43:55.213Z,4.47
2018-04-06T09:46:22.684Z,3.90
2018-04-06T09:48:50.133Z,3.53
2018-04-06T09:51:17.577Z,4.23
2018-04-06T09:53:45.039Z,5.07
2018-04-06T09:56:13.278Z,4.30
2018-04-06T09:58:40.741Z,3.97
2018-04-06T10:01:09.660Z,3.37
2018-04-06T10:03:37.177Z,4.60
2018-04-06T10:06:05.066Z,4.50
2018-04-06T10:08:32.952Z,7.20
2018-04-06T10:11:00.408Z,3.53
2018-04-06T10:13:28.438Z,3.63
2018-04-06T10:15:55.882Z,3.47
2018-04-06T10:18:24.889Z,4.67
2018-04-06T10:20:52.337Z,2.55
2018-04-06T10:23:20.607Z,3.73
2018-04-06T10:25:49.250Z,4.57
2018-04-06T10:28:16.719Z,4.87
2018-04-06T10:30:44.765Z,2.70
2018-04-06T10:33:12.231Z,3.28
2018-04-06T10:35:39.688Z,3.50
2018-04-06T10:38:07.890Z,3.43
2018-04-06T10:40:35.834Z,2.17
2018-04-06T10:43:03.321Z,2.58
2018-04-06T10:45:31.541Z,2.67
2018-04-06T10:47:59.417Z,2.72
2018-04-06T10:50:26.861Z,3.22
2018-04-06T10:52:56.965Z,2.87
2018-04-06T10:55:27.015Z,2.15
2018-04-06T10:57:54.465Z,3.62
2018-04-06T11:00:22.533Z,6.37
2018-04-06T11:02:50.221Z,2.28
2018-04-06T11:05:17.662Z,2.30
2018-04-06T11:07:45.230Z,4.68
2018-04-06T11:10:13.682Z,4.53
2018-04-06T11:12:42.465Z,3.78
2018-04-06T11:15:09.918Z,3.67
2018-04-06T11:17:37.376Z,5.32
2018-04-06T11:20:04.833Z,2.87
2018-04-06T11:22:32.467Z,4.70
2018-04-06T11:25:00.681Z,2.70
2018-04-06T11:27:31.394Z,4.32
2018-04-06T11:29:58.849Z,2.37
2018-04-06T11:32:26.865Z,1.90
2018-04-06T11:34:54.322Z,3.78
2018-04-06T11:37:21.781Z,1.87
2018-04-06T11:39:49.231Z,2.37
2018-04-06T11:42:16.689Z,3.50
2018-04-06T11:44:44.898Z,3.33
2018-04-06T11:47:13.121Z,3.13
2018-04-06T11:49:41.011Z,4.60
2018-04-06T11:52:09.796Z,4.23
2018-04-06T11:54:37.260Z,1.80
2018-04-06T11:57:04.714Z,3.30
2018-04-06T11:59:32.170Z,1.83
2018-04-06T12:01:59.622Z,3.15
2018-04-06T12:04:27.079Z,2.17
2018-04-06T12:06:54.526Z,2.50
2018-04-06T12:09:21.974Z,2.85
2018-04-06T12:11:49.433Z,3.53
2018-04-06T12:14:17.073Z,2.40
2018-04-06T12:16:44.526Z,2.45
2018-04-06T12:19:11.997Z,3.25
2018-04-06T12:21:39.441Z,4.07
2018-04-06T12:24:07.240Z,2.60
2018-04-06T12:26:35.490Z,5.18
2018-04-06T12:29:02.942Z,5.80
2018-04-06T12:31:30.426Z,2.72
2018-04-06T12:33:57.926Z,4.70
2018-04-06T12:36:26.253Z,2.33
2018-04-06T12:38:53.719Z,2.20
2018-04-06T12:41:21.172Z,2.95
2018-04-06T12:43:48.609Z,2.40
2018-04-06T12:46:16.479Z,2.12
2018-04-06T12:48:43.948Z,2.37
2018-04-06T12:51:11.420Z,3.10
2018-04-06T12:53:38.872Z,1.80
2018-04-06T12:56:06.330Z,3.12
2018-04-06T12:58:34.221Z,2.90
2018-04-06T13:01:02.529Z,2.55
2018-04-06T13:03:29.985Z,1.85
2018-04-06T13:08:49.173Z,2.55
2018-04-06T13:11:16.629Z,2.42
2018-04-06T13:13:44.097Z,3.28
2018-04-06T13:16:11.657Z,4.07
2018-04-06T13:18:39.119Z,3.15
2018-04-06T13:21:06.583Z,3.97
2018-04-06T13:23:34.041Z,1.70
2018-04-06T13:26:01.514Z,2.60
2018-04-06T13:28:28.960Z,2.40
2018-04-06T13:30:56.525Z,4.37
2018-04-06T13:33:24.961Z,2.60
2018-04-06T13:35:52.865Z,4.30
2018-04-06T13:38:20.317Z,2.33
2018-04-06T13:40:47.765Z,2.42
2018-04-06T13:43:15.254Z,3.05
2018-04-06T13:45:42.702Z,3.47
2018-04-06T13:48:10.202Z,3.53
2018-04-06T13:50:37.772Z,2.25
2018-04-06T13:53:05.223Z,2.42
2018-04-06T13:55:32.673Z,2.25
2018-04-06T13:58:01.052Z,6.32
2018-04-06T14:00:28.502Z,2.45
2018-04-06T14:02:55.979Z,3.53
2018-04-06T14:05:23.429Z,4.05
2018-04-06T14:07:50.891Z,2.92
2018-04-06T14:10:18.362Z,3.30
2018-04-06T14:12:45.833Z,6.25
2018-04-06T14:15:13.285Z,3.33
2018-04-06T14:17:47.436Z,3.75
2018-04-06T14:20:15.654Z,2.47
2018-04-06T14:22:43.668Z,5.40
2018-04-06T14:25:12.086Z,4.03
2018-04-06T14:27:40.001Z,4.75
2018-04-06T14:30:07.564Z,2.78
2018-04-06T14:32:35.622Z,2.72
2018-04-06T14:35:03.080Z,3.37
2018-04-06T14:37:30.531Z,3.45
2018-04-06T14:39:57.985Z,20.35
2018-04-06T14:42:25.458Z,2.60
2018-04-06T14:44:52.905Z,4.75
2018-04-06T14:47:20.381Z,9.18
2018-04-06T14:49:47.838Z,3.10
2018-04-06T14:52:15.317Z,4.53
2018-04-06T14:54:43.542Z,2.92
2018-04-06T14:57:10.998Z,2.95
2018-04-06T14:59:38.453Z,4.57
2018-04-06T15:02:05.993Z,3.70
2018-04-06T15:04:33.460Z,3.08
2018-04-06T15:07:02.014Z,25.67
2018-04-06T15:09:29.466Z,10.88
2018-04-06T15:11:57.694Z,8.35
2018-04-06T15:14:25.157Z,4.93
2018-04-06T15:16:52.600Z,2.67
2018-04-06T15:19:20.073Z,3.60
2018-04-06T15:21:47.524Z,4.25
2018-04-06T15:24:15.415Z,3.20
2018-04-06T15:26:42.874Z,3.17
2018-04-06T15:29:11.170Z,2.83
2018-04-06T15:31:38.613Z,6.12
2018-04-06T15:34:06.861Z,3.22
2018-04-06T15:36:34.312Z,3.55
2018-04-06T15:39:01.774Z,3.60
2018-04-06T15:41:29.294Z,3.97
2018-04-06T15:43:56.748Z,3.85
2018-04-06T15:46:24.628Z,3.50
2018-04-06T15:48:54.727Z,3.30
2018-04-06T15:51:22.190Z,4.10
2018-04-06T15:53:49.704Z,3.97
2018-04-06T15:56:17.154Z,3.33
2018-04-06T15:58:44.598Z,4.60
2018-04-06T16:01:12.500Z,4.22
2018-04-06T16:03:40.717Z,5.05
2018-04-06T16:06:10.640Z,3.55
2018-04-06T16:08:38.094Z,3.60
2018-04-06T16:11:08.017Z,3.90
2018-04-06T16:13:35.492Z,4.12
2018-04-06T16:16:02.958Z,3.22
2018-04-06T16:18:30.407Z,4.62
2018-04-06T16:20:58.469Z,4.50
2018-04-06T16:23:25.920Z,3.35
2018-04-06T16:25:53.382Z,3.70
2018-04-06T16:28:20.843Z,4.18
2018-04-06T16:30:48.298Z,3.90
2018-04-06T16:33:16.963Z,3.85
2018-04-06T16:35:44.414Z,4.12
2018-04-06T16:38:12.649Z,3.40
2018-04-06T16:40:40.118Z,4.53
2018-04-06T16:43:08.014Z,3.28
2018-04-06T16:45:35.468Z,3.72
2018-04-06T16:48:02.918Z,4.25
2018-04-06T16:50:30.387Z,3.60
2018-04-06T16:52:57.833Z,4.00
2018-04-06T16:55:25.905Z,3.75
2018-04-06T16:57:53.377Z,3.93
2018-04-06T17:00:20.845Z,3.43
2018-04-06T17:02:50.887Z,4.03
2018-04-06T17:05:19.333Z,4.50
2018-04-06T17:07:46.835Z,3.40
2018-04-06T17:10:15.312Z,5.70
2018-04-06T17:12:43.562Z,4.93
2018-04-06T17:15:11.095Z,5.33
2018-04-06T17:17:39.140Z,2.80
2018-04-06T17:20:06.641Z,3.37
2018-04-06T17:25:08.165Z,3.40
2018-04-06T17:27:35.629Z,3.80
2018-04-06T17:30:03.133Z,2.60
2018-04-06T17:32:30.600Z,2.93
2018-04-06T17:34:58.816Z,3.20
2018-04-06T17:37:26.530Z,3.20
2018-04-06T17:39:53.985Z,5.97
2018-04-06T17:42:22.002Z,3.80
2018-04-06T17:44:51.382Z,4.37
2018-04-06T17:47:21.017Z,4.53
2018-04-06T17:49:48.504Z,4.27
2018-04-06T17:52:15.971Z,4.97
2018-04-06T17:54:43.426Z,3.57
2018-04-06T17:57:10.873Z,3.77
2018-04-06T17:59:38.750Z,4.47
2018-04-06T18:02:06.924Z,3.37
2018-04-06T18:04:34.386Z,3.37
2018-04-06T18:07:01.844Z,3.77
2018-04-06T18:09:29.302Z,2.67
2018-04-06T18:11:56.753Z,2.90
2018-04-06T18:14:24.971Z,2.97
2018-04-06T18:16:53.181Z,3.63
2018-04-06T18:19:20.629Z,2.67
2018-04-06T18:21:48.718Z,3.53
2018-04-06T18:24:16.176Z,3.47
2018-04-06T18:26:43.646Z,3.40
2018-04-06T18:29:11.086Z,3.77
2018-04-06T18:31:38.539Z,3.50
2018-04-06T18:34:05.994Z,4.07
2018-04-06T18:36:33.454Z,3.83
2018-04-06T18:39:00.898Z,3.47
2018-04-06T18:41:28.617Z,3.57
2018-04-06T18:43:56.837Z,4.00
2018-04-06T18:46:24.277Z,3.57
2018-04-06T18:48:51.722Z,6.67
2018-04-06T18:51:19.169Z,5.17
2018-04-06T18:53:46.613Z,4.10
2018-04-06T18:56:14.838Z,3.07
2018-04-06T18:58:42.286Z,2.93
2018-04-06T19:01:09.753Z,2.83
2018-04-06T19:03:37.197Z,2.97
2018-04-06T19:06:04.650Z,2.97
2018-04-06T19:08:32.818Z,7.33
2018-04-06T19:11:00.293Z,13.80
2018-04-06T19:13:28.156Z,8.00
2018-04-06T19:15:55.607Z,8.00
2018-04-06T19:18:23.056Z,3.40
2018-04-06T19:20:50.536Z,2.50
2018-04-06T19:23:19.229Z,5.13
2018-04-06T19:25:46.727Z,5.57
2018-04-06T19:28:14.934Z,6.80
2018-04-06T19:30:42.387Z,7.43
2018-04-06T19:33:09.831Z,3.83
2018-04-06T19:35:37.333Z,2.67
2018-04-06T19:38:04.784Z,4.90
2018-04-06T19:40:32.222Z,2.57
2018-04-06T19:42:59.677Z,2.50
2018-04-06T19:45:27.537Z,3.30
2018-04-06T19:47:54.999Z,3.07
2018-04-06T19:50:22.451Z,4.97
2018-04-06T19:52:51.103Z,5.00
2018-04-06T19:55:19.321Z,4.33
2018-04-06T19:57:46.787Z,2.70
2018-04-06T20:00:14.813Z,2.63
2018-04-06T20:02:43.622Z,2.93
2018-04-06T20:05:11.632Z,3.80
2018-04-06T20:07:39.401Z,4.93
2018-04-06T20:10:06.846Z,5.70
2018-04-06T20:12:34.342Z,4.70
2018-04-06T20:15:02.546Z,4.03
2018-04-06T20:17:30.005Z,3.37
2018-04-06T20:19:57.450Z,3.73
2018-04-06T20:22:24.902Z,2.77
2018-04-06T20:24:52.353Z,6.40
2018-04-06T20:27:20.314Z,3.73
2018-04-06T20:29:48.534Z,3.03
2018-04-06T20:32:15.974Z,2.90
2018-04-06T20:34:43.430Z,4.40
2018-04-06T20:37:10.872Z,3.17
2018-04-06T20:39:38.325Z,4.67
2018-04-06T20:42:05.863Z,2.93
2018-04-06T20:44:33.295Z,3.83
2018-04-06T20:47:00.751Z,3.67
2018-04-06T20:49:28.641Z,3.23
2018-04-06T20:51:56.139Z,3.20
2018-04-06T20:54:23.579Z,2.70
2018-04-06T20:56:51.052Z,2.93
2018-04-06T20:59:18.510Z,3.03
2018-04-06T21:01:45.954Z,2.97
2018-04-06T21:04:13.598Z,3.23
2018-04-06T21:06:42.345Z,4.13
2018-04-06T21:09:09.792Z,3.20
2018-04-06T21:11:37.231Z,2.87
2018-04-06T21:14:04.684Z,3.70
2018-04-06T21:16:32.133Z,3.57
2018-04-06T21:18:59.569Z,3.23
2018-04-06T21:21:27.799Z,3.40
2018-04-06T21:23:55.241Z,3.10
2018-04-06T21:26:22.686Z,6.03
2018-04-06T21:28:50.547Z,3.47
2018-04-06T21:31:18.853Z,3.67
2018-04-06T21:33:46.833Z,3.30
2018-04-06T21:36:14.296Z,3.27
2018-04-06T21:38:41.737Z,3.00
2018-04-06T21:41:10.010Z,4.43
2018-04-06T21:43:37.456Z,3.57
2018-04-06T21:46:05.613Z,3.30
2018-04-06T21:48:33.645Z,4.03
2018-04-06T21:51:02.281Z,3.67
2018-04-06T21:53:29.774Z,4.20
2018-04-06T21:55:57.180Z,4.67
2018-04-06T21:58:24.637Z,3.50
2018-04-06T22:00:52.144Z,4.67
2018-04-06T22:03:19.525Z,4.67
2018-04-06T22:05:47.733Z,3.50
2018-04-06T22:08:15.229Z,7.93
2018-04-06T22:10:42.665Z,5.00
2018-04-06T22:13:10.114Z,4.00
2018-04-06T22:15:37.599Z,3.37
2018-04-06T22:18:05.056Z,6.53
2018-04-06T22:20:32.670Z,4.67
2018-04-06T22:23:00.725Z,5.03
2018-04-06T22:25:28.626Z,3.67
2018-04-06T22:27:56.095Z,3.43
2018-04-06T22:30:23.572Z,5.30
2018-04-06T22:32:51.055Z,3.47
2018-04-06T22:35:19.316Z,3.40
2018-04-06T22:37:47.532Z,3.63
2018-04-06T22:40:14.986Z,5.23
2018-04-06T22:42:42.528Z,5.00
2018-04-06T22:45:10.756Z,4.33
2018-04-06T22:47:38.197Z,3.77
2018-04-06T22:50:05.657Z,4.23
2018-04-06T22:52:33.098Z,4.17
2018-04-06T22:55:00.982Z,5.00
2018-04-06T22:57:28.438Z,4.60
2018-04-06T22:59:55.885Z,3.57
2018-04-06T23:02:23.336Z,4.70
2018-04-06T23:04:50.774Z,4.53
2018-04-06T23:07:18.216Z,3.67
2018-04-06T23:09:45.665Z,3.77
2018-04-06T23:12:13.886Z,4.77
2018-04-06T23:14:41.335Z,4.90
2018-04-06T23:17:08.777Z,4.83
2018-04-06T23:19:36.226Z,4.03
2018-04-06T23:22:03.964Z,6.87
2018-04-06T23:24:32.194Z,4.17
2018-04-06T23:26:59.641Z,5.37
2018-04-06T23:29:27.090Z,4.17
2018-04-06T23:31:54.538Z,4.57
2018-04-06T23:34:21.997Z,5.43
2018-04-06T23:36:49.982Z,6.43
2018-04-06T23:39:17.852Z,7.03
2018-04-06T23:41:45.300Z,4.70
2018-04-06T23:44:12.747Z,5.70
2018-04-06T23:46:40.198Z,5.57
2018-04-06T23:49:07.996Z,4.37
2018-04-06T23:51:35.434Z,4.57
2018-04-06T23:54:03.774Z,4.53
2018-04-06T23:56:31.990Z,5.27
2018-04-06T23:58:59.823Z,4.07
